createdAt,value
2022-11-23T00:01:36.990Z,99160.25
2022-11-23T00:04:38.381Z,99153.53
2022-11-23T00:07:39.874Z,99149.06
2022-11-23T00:10:41.928Z,99153.16
2022-11-23T00:13:44.064Z,99148.03
2022-11-23T00:16:45.456Z,99141.69
2022-11-23T00:19:46.852Z,99146.75
2022-11-23T00:22:48.251Z,99152.59
2022-11-23T00:25:49.656Z,99148.19
2022-11-23T00:28:51.105Z,99149.13
2022-11-23T00:31:52.483Z,99143.88
2022-11-23T00:34:53.880Z,99144.66
2022-11-23T00:37:55.317Z,99148.97
2022-11-23T00:41:08.950Z,99155.28
2022-11-23T00:44:10.638Z,99155.53
2022-11-23T00:47:12.049Z,99160.91
2022-11-23T00:50:13.470Z,99153.19
2022-11-23T00:53:14.852Z,99160.09
2022-11-23T00:56:18.180Z,99165.41
2022-11-23T00:59:19.588Z,99158.41
2022-11-23T01:02:21.033Z,99164.31
2022-11-23T01:05:22.431Z,99166.00
2022-11-23T01:08:24.076Z,99161.38
2022-11-23T01:11:30.047Z,99164.03
2022-11-23T01:14:31.460Z,99158.94
2022-11-23T01:17:32.835Z,99163.63
2022-11-23T01:20:34.876Z,99167.00
2022-11-23T01:23:36.371Z,99172.25
2022-11-23T01:26:39.069Z,99166.50
2022-11-23T01:29:40.473Z,99173.47
2022-11-23T01:32:41.872Z,99172.41
2022-11-23T01:35:43.330Z,99169.88
2022-11-23T01:38:45.981Z,99174.94
2022-11-23T01:41:48.508Z,99165.03
2022-11-23T01:44:51.790Z,99169.25
2022-11-23T01:47:53.245Z,99170.16
2022-11-23T01:50:56.242Z,99170.94
2022-11-23T01:54:01.014Z,99183.81
2022-11-23T01:57:07.568Z,99177.56
2022-11-23T02:00:09.582Z,99184.53
2022-11-23T02:03:18.793Z,99184.41
2022-11-23T02:06:22.944Z,99186.09
2022-11-23T02:09:24.518Z,99190.56
2022-11-23T02:12:26.018Z,99188.22
2022-11-23T02:15:27.460Z,99188.47
2022-11-23T02:18:31.447Z,99183.31
2022-11-23T02:21:33.011Z,99179.06
2022-11-23T02:24:42.088Z,99189.56
2022-11-23T02:27:47.152Z,99190.66
2022-11-23T02:30:51.680Z,99182.00
2022-11-23T02:33:55.649Z,99188.53
2022-11-23T02:36:57.840Z,99181.34
2022-11-23T02:40:02.190Z,99185.66
2022-11-23T02:43:03.640Z,99182.25
2022-11-23T02:46:05.452Z,99180.44
2022-11-23T02:49:06.871Z,99175.19
2022-11-23T02:52:09.255Z,99175.03
2022-11-23T02:55:10.944Z,99164.56
2022-11-23T02:58:12.871Z,99167.16
2022-11-23T03:01:14.320Z,99169.78
2022-11-23T03:04:15.785Z,99167.97
2022-11-23T03:07:17.257Z,99159.06
2022-11-23T03:10:20.711Z,99153.94
2022-11-23T03:13:24.892Z,99167.00
2022-11-23T03:16:26.924Z,99172.13
2022-11-23T03:19:28.374Z,99167.59
2022-11-23T03:22:30.872Z,99172.81
2022-11-23T03:25:33.068Z,99172.72
2022-11-23T03:28:34.597Z,99166.56
2022-11-23T03:31:36.261Z,99174.44
2022-11-23T03:34:39.955Z,99174.44
2022-11-23T03:37:42.675Z,99170.09
2022-11-23T03:40:48.252Z,99178.63
2022-11-23T03:43:55.584Z,99184.66
2022-11-23T03:46:57.574Z,99175.03
2022-11-23T03:50:00.874Z,99174.19
2022-11-23T03:53:02.911Z,99174.28
2022-11-23T03:56:04.649Z,99174.91
2022-11-23T03:59:09.883Z,99167.06
2022-11-23T04:02:12.726Z,99167.03
2022-11-23T04:05:22.457Z,99166.22
2022-11-23T04:09:01.511Z,99164.47
2022-11-23T04:12:16.939Z,99165.38
2022-11-23T04:15:18.930Z,99171.31
2022-11-23T04:18:20.478Z,99177.31
2022-11-23T04:21:22.028Z,99165.97
2022-11-23T04:24:23.483Z,99173.94
2022-11-23T04:27:28.040Z,99165.25
2022-11-23T04:30:29.578Z,99166.81
2022-11-23T04:33:32.656Z,99163.28
2022-11-23T04:36:34.664Z,99158.19
2022-11-23T04:39:37.164Z,99162.56
2022-11-23T04:43:14.099Z,99165.13
2022-11-23T04:46:15.970Z,99160.81
2022-11-23T04:49:19.980Z,99166.16
2022-11-23T04:52:21.681Z,99163.53
2022-11-23T04:55:24.985Z,99160.91
2022-11-23T04:58:34.504Z,99163.53
2022-11-23T05:01:36.623Z,99160.97
2022-11-23T05:04:58.010Z,99153.84
2022-11-23T05:08:03.715Z,99156.72
2022-11-23T05:11:19.748Z,99164.00
2022-11-23T05:14:22.965Z,99162.47
2022-11-23T05:17:24.425Z,99161.44
2022-11-23T05:20:28.518Z,99159.06
2022-11-23T05:23:30.004Z,99158.16
2022-11-23T05:26:33.239Z,99153.94
2022-11-23T05:29:34.922Z,99156.88
2022-11-23T05:32:38.098Z,99156.88
2022-11-23T05:35:40.643Z,99153.59
2022-11-23T05:38:42.827Z,99149.81
2022-11-23T05:41:58.151Z,99152.94
2022-11-23T05:45:11.828Z,99156.50
2022-11-23T05:48:18.107Z,99165.44
2022-11-23T05:51:28.474Z,99156.91
2022-11-23T05:54:29.931Z,99164.09
2022-11-23T05:57:39.309Z,99161.41
2022-11-23T06:00:41.267Z,99165.91
2022-11-23T06:03:43.733Z,99174.69
2022-11-23T06:06:45.461Z,99170.63
2022-11-23T06:09:46.926Z,99175.06
2022-11-23T06:12:49.924Z,99169.94
2022-11-23T06:15:53.108Z,99171.75
2022-11-23T06:18:59.888Z,99177.09
2022-11-23T06:22:01.496Z,99180.44
2022-11-23T06:25:07.329Z,99171.94
2022-11-23T06:28:11.820Z,99180.66
2022-11-23T06:31:17.656Z,99183.72
2022-11-23T06:34:19.132Z,99184.63
2022-11-23T06:37:20.718Z,99180.66
2022-11-23T06:40:27.335Z,99178.94
2022-11-23T06:43:30.000Z,99175.44
2022-11-23T06:46:32.478Z,99171.16
2022-11-23T06:49:34.328Z,99178.28
2022-11-23T06:52:47.039Z,99180.72
2022-11-23T06:55:48.726Z,99182.63
2022-11-23T06:58:52.949Z,99185.56
2022-11-23T07:01:59.487Z,99194.41
2022-11-23T07:05:06.493Z,99197.25
2022-11-23T07:08:08.029Z,99199.03
2022-11-23T07:11:11.021Z,99198.22
2022-11-23T07:14:13.548Z,99198.94
2022-11-23T07:17:18.061Z,99196.56
2022-11-23T07:20:20.196Z,99196.03
2022-11-23T07:23:22.013Z,99211.13
2022-11-23T07:26:23.513Z,99213.81
2022-11-23T07:29:25.081Z,99208.44
2022-11-23T07:32:26.907Z,99198.72
2022-11-23T07:35:29.484Z,99204.06
2022-11-23T07:38:32.261Z,99215.84
2022-11-23T07:41:35.324Z,99217.44
2022-11-23T07:44:45.711Z,99218.22
2022-11-23T07:47:47.098Z,99216.38
2022-11-23T07:50:48.537Z,99220.59
2022-11-23T07:53:49.928Z,99229.13
2022-11-23T07:56:51.330Z,99224.81
2022-11-23T07:59:52.801Z,99228.84
2022-11-23T08:03:19.800Z,99215.44
2022-11-23T08:06:16.316Z,99213.56
2022-11-23T08:09:17.864Z,99212.56
2022-11-23T08:12:19.283Z,99218.47
2022-11-23T08:15:20.721Z,99223.72
2022-11-23T08:18:22.988Z,99219.66
2022-11-23T08:21:24.486Z,99220.38
2022-11-23T08:24:25.920Z,99218.41
2022-11-23T08:27:27.411Z,99222.75
2022-11-23T08:30:30.586Z,99222.00
2022-11-23T08:33:32.054Z,99222.91
2022-11-23T08:36:33.459Z,99229.09
2022-11-23T08:39:34.849Z,99227.38
2022-11-23T08:42:36.349Z,99223.72
2022-11-23T08:45:37.800Z,99222.56
2022-11-23T08:48:39.240Z,99227.00
2022-11-23T08:51:42.470Z,99223.16
2022-11-23T08:54:45.939Z,99225.66
2022-11-23T08:57:47.372Z,99235.03
2022-11-23T09:00:48.828Z,99227.13
2022-11-23T09:03:56.875Z,99221.97
2022-11-23T09:06:58.275Z,99227.06
2022-11-23T09:09:59.806Z,99223.38
2022-11-23T09:13:01.247Z,99223.53
2022-11-23T09:16:03.364Z,99234.69
2022-11-23T09:19:06.303Z,99229.84
2022-11-23T09:22:10.819Z,99229.59
2022-11-23T09:25:12.368Z,99226.19
2022-11-23T09:28:14.857Z,99227.25
2022-11-23T09:31:16.968Z,99225.34
2022-11-23T09:34:18.484Z,99226.56
2022-11-23T09:37:19.869Z,99231.13
2022-11-23T09:40:21.504Z,99230.75
2022-11-23T09:43:56.807Z,99234.50
2022-11-23T09:47:42.958Z,99227.19
2022-11-23T09:51:20.775Z,99222.28
2022-11-23T09:54:24.694Z,99217.28
2022-11-23T09:57:31.103Z,99223.13
2022-11-23T10:00:41.001Z,99218.66
2022-11-23T10:03:48.733Z,99208.91
2022-11-23T10:06:58.201Z,99214.75
2022-11-23T10:10:19.421Z,99221.31
2022-11-23T10:13:32.968Z,99223.16
2022-11-23T10:16:50.035Z,99217.53
2022-11-23T10:20:04.179Z,99204.75
2022-11-23T10:23:48.163Z,99215.44
2022-11-23T10:26:50.233Z,99213.31
2022-11-23T10:29:56.344Z,99213.00
2022-11-23T10:33:10.100Z,99204.84
2022-11-23T10:36:13.633Z,99192.50
2022-11-23T10:39:22.974Z,99200.41
2022-11-23T10:42:36.300Z,99202.56
2022-11-23T10:45:37.783Z,99197.84
2022-11-23T10:48:39.237Z,99192.56
2022-11-23T10:51:48.297Z,99193.50
2022-11-23T10:54:54.283Z,99192.75
2022-11-23T10:57:56.643Z,99189.34
2022-11-23T11:01:02.799Z,99187.81
2022-11-23T11:04:04.746Z,99188.09
2022-11-23T11:07:25.997Z,99183.06
2022-11-23T11:10:46.572Z,99180.16
2022-11-23T11:13:48.788Z,99168.66
2022-11-23T11:16:56.168Z,99165.03
2022-11-23T11:19:57.931Z,99161.38
2022-11-23T11:23:15.511Z,99147.84
2022-11-23T11:26:22.951Z,99149.69
2022-11-23T11:29:44.588Z,99138.81
2022-11-23T11:33:01.435Z,99135.94
2022-11-23T11:36:06.616Z,99124.78
2022-11-23T11:39:19.656Z,99119.03
2022-11-23T11:42:30.540Z,99116.69
2022-11-23T11:45:36.625Z,99118.47
2022-11-23T11:49:05.888Z,99109.16
2022-11-23T11:52:12.166Z,99113.19
2022-11-23T11:55:23.305Z,99108.25
2022-11-23T11:58:26.291Z,99100.44
2022-11-23T12:01:36.033Z,99099.53
2022-11-23T12:04:50.190Z,99093.41
2022-11-23T12:08:02.635Z,99087.84
2022-11-23T12:11:06.573Z,99092.75
2022-11-23T12:14:14.464Z,99089.34
2022-11-23T12:17:36.720Z,99081.78
2022-11-23T12:20:52.453Z,99080.56
2022-11-23T12:24:08.424Z,99072.00
2022-11-23T12:27:49.216Z,99069.06
2022-11-23T12:31:09.685Z,99072.66
2022-11-23T12:34:18.501Z,99065.41
2022-11-23T12:37:34.022Z,99057.00
2022-11-23T12:41:18.804Z,99056.91
2022-11-23T12:44:49.628Z,99056.81
2022-11-23T12:47:59.017Z,99052.28
2022-11-23T12:51:13.821Z,99056.94
2022-11-23T12:54:44.626Z,99053.78
2022-11-23T12:58:03.621Z,99045.78
2022-11-23T13:01:17.402Z,99044.94
2022-11-23T13:04:50.846Z,99040.41
2022-11-23T13:08:08.960Z,99036.72
2022-11-23T13:11:36.548Z,99026.25
2022-11-23T13:15:16.051Z,99030.69
2022-11-23T13:18:45.516Z,99026.22
2022-11-23T13:21:47.722Z,99033.81
2022-11-23T13:25:25.724Z,99023.63
2022-11-23T13:28:31.083Z,99020.59
2022-11-23T13:31:33.497Z,99010.47
2022-11-23T13:34:46.952Z,99013.03
2022-11-23T13:37:57.158Z,99009.41
2022-11-23T13:40:58.699Z,98997.84
2022-11-23T13:44:18.355Z,98988.66
2022-11-23T13:47:20.241Z,98990.00
2022-11-23T13:50:21.706Z,98993.78
2022-11-23T13:53:33.949Z,98979.00
2022-11-23T13:56:38.636Z,98978.59
2022-11-23T13:59:40.132Z,98980.78
2022-11-23T14:02:42.404Z,98974.38
2022-11-23T14:05:49.932Z,98967.97
2022-11-23T14:08:59.208Z,98962.13
2022-11-23T14:12:06.903Z,98957.00
2022-11-23T14:15:16.087Z,98958.16
2022-11-23T14:18:23.487Z,98956.94
2022-11-23T14:21:43.704Z,98948.69
2022-11-23T14:25:30.938Z,98949.25
2022-11-23T14:28:55.144Z,98936.63
2022-11-23T14:32:35.158Z,98935.69
2022-11-23T14:35:49.035Z,98945.34
2022-11-23T14:39:08.947Z,98940.72
2022-11-23T14:42:23.040Z,98942.13
2022-11-23T14:45:29.570Z,98946.25
2022-11-23T14:48:33.506Z,98948.47
2022-11-23T14:51:39.473Z,98946.28
2022-11-23T14:54:48.414Z,98942.97
2022-11-23T14:57:52.486Z,98948.44
2022-11-23T15:00:59.779Z,98940.78
2022-11-23T15:04:22.235Z,98949.22
2022-11-23T15:07:28.769Z,98935.97
2022-11-23T15:10:38.938Z,98946.69
2022-11-23T15:14:04.803Z,98945.53
2022-11-23T15:17:18.422Z,98941.09
2022-11-23T15:20:21.267Z,98941.59
2022-11-23T15:23:25.847Z,98939.41
2022-11-23T15:29:57.843Z,98944.22
2022-11-23T15:33:01.939Z,98952.72
2022-11-23T15:36:04.049Z,98969.78
2022-11-23T15:39:09.438Z,98963.44
2022-11-23T15:42:18.299Z,98969.72
2022-11-23T15:45:41.843Z,98979.47
2022-11-23T15:48:49.417Z,98967.75
2022-11-23T15:51:52.667Z,98974.38
2022-11-23T15:54:54.667Z,98974.97
2022-11-23T15:57:57.032Z,98990.38
2022-11-23T16:01:13.386Z,98982.72
2022-11-23T16:04:35.990Z,98986.19
2022-11-23T16:07:59.942Z,98984.59
2022-11-23T16:11:01.851Z,98982.03
2022-11-23T16:14:15.328Z,98989.94
2022-11-23T16:17:18.712Z,98990.72
2022-11-23T16:20:23.952Z,98992.75
2022-11-23T16:23:28.818Z,98997.75
2022-11-23T16:26:32.837Z,99005.31
2022-11-23T16:29:36.645Z,99014.34
2022-11-23T16:32:38.061Z,99013.63
2022-11-23T16:35:39.616Z,99015.69
2022-11-23T16:38:41.114Z,99021.31
2022-11-23T16:41:42.720Z,99023.00
2022-11-23T16:44:44.921Z,99038.66
2022-11-23T16:47:55.089Z,99042.38
2022-11-23T16:50:57.386Z,99044.06
2022-11-23T16:54:17.032Z,99054.78
2022-11-23T16:57:33.247Z,99062.88
2022-11-23T17:00:35.950Z,99071.78
2022-11-23T17:03:41.141Z,99084.53
2022-11-23T17:06:44.062Z,99087.38
2022-11-23T17:09:45.619Z,99094.16
2022-11-23T17:12:51.155Z,99107.81
2022-11-23T17:15:52.752Z,99118.88
2022-11-23T17:18:54.160Z,99130.41
2022-11-23T17:21:55.603Z,99132.91
2022-11-23T17:24:57.242Z,99139.25
2022-11-23T17:28:00.402Z,99152.50
2022-11-23T17:31:01.979Z,99146.63
2022-11-23T17:34:03.428Z,99145.16
2022-11-23T17:37:05.665Z,99152.44
2022-11-23T17:40:17.740Z,99147.78
2022-11-23T17:43:19.850Z,99150.53
2022-11-23T17:46:26.543Z,99155.88
2022-11-23T17:49:28.371Z,99163.09
2022-11-23T17:52:29.969Z,99166.03
2022-11-23T17:55:31.557Z,99173.22
2022-11-23T17:58:32.943Z,99185.38
2022-11-23T18:01:34.495Z,99178.31
2022-11-23T18:04:36.603Z,99179.56
2022-11-23T18:07:38.477Z,99182.34
2022-11-23T18:10:39.939Z,99190.31
2022-11-23T18:13:42.518Z,99191.63
2022-11-23T18:16:43.959Z,99198.72
2022-11-23T18:19:45.413Z,99209.75
2022-11-23T18:22:47.049Z,99215.03
2022-11-23T18:26:04.788Z,99215.94
2022-11-23T18:29:06.465Z,99224.47
2022-11-23T18:32:08.715Z,99231.44
2022-11-23T18:35:10.100Z,99234.06
2022-11-23T18:38:11.536Z,99247.09
2022-11-23T18:41:16.108Z,99247.50
2022-11-23T18:44:17.729Z,99250.50
2022-11-23T18:47:19.189Z,99257.31
2022-11-23T18:50:20.731Z,99266.69
2022-11-23T18:53:23.044Z,99274.13
2022-11-23T18:56:24.557Z,99274.34
2022-11-23T18:59:56.200Z,99274.47
2022-11-23T19:02:55.120Z,99279.06
2022-11-23T19:06:02.408Z,99280.03
2022-11-23T19:09:04.071Z,99288.66
2022-11-23T19:12:06.729Z,99289.31
2022-11-23T19:15:09.742Z,99291.03
2022-11-23T19:18:11.217Z,99297.66
2022-11-23T19:21:20.710Z,99299.06
2022-11-23T19:24:22.224Z,99307.00
2022-11-23T19:27:23.814Z,99310.44
2022-11-23T19:30:25.429Z,99315.75
2022-11-23T19:33:29.176Z,99332.16
2022-11-23T19:36:33.107Z,99343.66
2022-11-23T19:39:34.878Z,99349.63
2022-11-23T19:42:36.628Z,99355.00
2022-11-23T19:45:38.064Z,99356.47
2022-11-23T19:48:40.405Z,99370.41
2022-11-23T19:51:41.944Z,99381.38
2022-11-23T19:54:43.376Z,99387.28
2022-11-23T19:57:44.748Z,99392.53
2022-11-23T20:00:46.970Z,99404.94
2022-11-23T20:03:51.108Z,99416.06
2022-11-23T20:06:52.563Z,99428.09
2022-11-23T20:09:53.982Z,99432.63
2022-11-23T20:12:55.512Z,99438.84
2022-11-23T20:16:02.663Z,99437.13
2022-11-23T20:19:07.072Z,99440.72
2022-11-23T20:22:08.692Z,99446.88
2022-11-23T20:25:10.896Z,99455.78
2022-11-23T20:28:13.855Z,99465.28
2022-11-23T20:31:20.467Z,99469.78
2022-11-23T20:34:26.103Z,99468.16
2022-11-23T20:37:27.931Z,99464.72
2022-11-23T20:40:29.404Z,99475.25
2022-11-23T20:43:30.774Z,99480.69
2022-11-23T20:49:54.918Z,99512.03
2022-11-23T20:53:01.993Z,99518.34
2022-11-23T20:56:12.271Z,99528.84
2022-11-23T20:59:13.739Z,99537.69
2022-11-23T21:02:15.603Z,99549.19
2022-11-23T21:05:17.969Z,99548.53
2022-11-23T21:08:30.183Z,99552.34
2022-11-23T21:11:53.141Z,99560.28
2022-11-23T21:14:54.703Z,99573.38
2022-11-23T21:17:56.090Z,99565.00
2022-11-23T21:20:57.636Z,99576.41
2022-11-23T21:23:59.356Z,99580.63
2022-11-23T21:27:01.411Z,99584.16
2022-11-23T21:30:03.017Z,99586.78
2022-11-23T21:33:04.865Z,99598.22
2022-11-23T21:36:08.016Z,99612.03
2022-11-23T21:39:10.987Z,99610.28
2022-11-23T21:42:12.377Z,99620.88
2022-11-23T21:45:13.986Z,99633.38
2022-11-23T21:48:15.373Z,99631.63
2022-11-23T21:51:17.070Z,99637.19
2022-11-23T21:54:18.635Z,99647.22
2022-11-23T21:57:20.032Z,99649.00
2022-11-23T22:00:28.418Z,99662.13
2022-11-23T22:03:37.573Z,99661.75
2022-11-23T22:06:40.044Z,99658.28
2022-11-23T22:09:41.571Z,99663.53
2022-11-23T22:12:43.002Z,99670.28
2022-11-23T22:15:44.634Z,99666.84
2022-11-23T22:18:51.415Z,99671.16
2022-11-23T22:21:55.671Z,99677.94
2022-11-23T22:24:57.052Z,99676.91
2022-11-23T22:27:58.504Z,99670.00
2022-11-23T22:31:00.108Z,99677.59
2022-11-23T22:34:03.711Z,99674.97
2022-11-23T22:37:10.225Z,99682.06
2022-11-23T22:40:12.617Z,99682.16
2022-11-23T22:43:14.035Z,99686.84
2022-11-23T22:46:21.211Z,99689.34
2022-11-23T22:49:22.678Z,99687.75
2022-11-23T22:52:24.051Z,99697.72
2022-11-23T22:55:25.432Z,99697.09
2022-11-23T22:58:27.786Z,99709.56
2022-11-23T23:01:30.289Z,99712.28
2022-11-23T23:04:32.068Z,99713.03
2022-11-23T23:07:33.812Z,99713.78
2022-11-23T23:10:35.719Z,99720.44
2022-11-23T23:13:37.213Z,99728.06
2022-11-23T23:16:38.740Z,99743.19
2022-11-23T23:19:40.226Z,99742.50
2022-11-23T23:22:41.621Z,99745.41
2022-11-23T23:25:43.005Z,99741.25
2022-11-23T23:28:44.753Z,99741.47
2022-11-23T23:31:46.259Z,99743.22
2022-11-23T23:34:47.769Z,99756.28
2022-11-23T23:37:51.196Z,99749.34
2022-11-23T23:40:55.737Z,99747.72
2022-11-23T23:43:57.218Z,99750.19
2022-11-23T23:46:58.710Z,99751.34
2022-11-23T23:50:00.091Z,99760.19
2022-11-23T23:53:01.538Z,99751.69
2022-11-23T23:56:06.109Z,99751.19
2022-11-23T23:59:07.804Z,99757.44
